sensor_id;sensor_type;location;lat;lon;timestamp;P1;durP1;ratioP1;P2;durP2;ratioP2
5349;SDS011;2697;42.144;24.794;2023-05-09T00:01:28;21.77;;;12.27;;
5349;SDS011;2697;42.144;24.794;2023-05-09T00:03:55;18.60;;;8.20;;
5349;SDS011;2697;42.144;24.794;2023-05-09T00:06:23;18.57;;;10.57;;
5349;SDS011;2697;42.144;24.794;2023-05-09T00:08:49;19.10;;;12.43;;
5349;SDS011;2697;42.144;24.794;2023-05-09T00:11:15;25.43;;;14.17;;
5349;SDS011;2697;42.144;24.794;2023-05-09T00:13:40;24.60;;;14.30;;
5349;SDS011;2697;42.144;24.794;2023-05-09T00:16:08;18.40;;;9.27;;
5349;SDS011;2697;42.144;24.794;2023-05-09T00:18:34;21.40;;;15.77;;
5349;SDS011;2697;42.144;24.794;2023-05-09T00:21:00;27.60;;;17.33;;
5349;SDS011;2697;42.144;24.794;2023-05-09T00:23:28;26.93;;;15.03;;
5349;SDS011;2697;42.144;24.794;2023-05-09T00:25:57;26.37;;;14.60;;
5349;SDS011;2697;42.144;24.794;2023-05-09T00:28:23;19.43;;;11.83;;
5349;SDS011;2697;42.144;24.794;2023-05-09T00:30:48;30.93;;;16.80;;
5349;SDS011;2697;42.144;24.794;2023-05-09T00:33:13;29.47;;;12.33;;
5349;SDS011;2697;42.144;24.794;2023-05-09T00:35:39;18.70;;;9.90;;
5349;SDS011;2697;42.144;24.794;2023-05-09T00:38:04;28.40;;;14.77;;
5349;SDS011;2697;42.144;24.794;2023-05-09T00:40:30;16.67;;;10.70;;
5349;SDS011;2697;42.144;24.794;2023-05-09T00:42:55;27.10;;;15.57;;
5349;SDS011;2697;42.144;24.794;2023-05-09T00:45:23;30.03;;;17.87;;
5349;SDS011;2697;42.144;24.794;2023-05-09T00:47:48;17.73;;;9.93;;
5349;SDS011;2697;42.144;24.794;2023-05-09T00:50:14;22.97;;;14.03;;
5349;SDS011;2697;42.144;24.794;2023-05-09T00:52:39;28.83;;;14.93;;
5349;SDS011;2697;42.144;24.794;2023-05-09T00:55:05;30.80;;;17.43;;
5349;SDS011;2697;42.144;24.794;2023-05-09T00:57:32;23.03;;;10.50;;
5349;SDS011;2697;42.144;24.794;2023-05-09T01:00:00;32.20;;;17.37;;
5349;SDS011;2697;42.144;24.794;2023-05-09T01:02:25;19.07;;;12.57;;
5349;SDS011;2697;42.144;24.794;2023-05-09T01:04:51;15.40;;;9.47;;
5349;SDS011;2697;42.144;24.794;2023-05-09T01:09:59;27.50;;;11.43;;
5349;SDS011;2697;42.144;24.794;2023-05-09T01:15:52;19.37;;;11.30;;
5349;SDS011;2697;42.144;24.794;2023-05-09T01:21:09;17.70;;;11.67;;
5349;SDS011;2697;42.144;24.794;2023-05-09T01:26:19;24.43;;;15.77;;
5349;SDS011;2697;42.144;24.794;2023-05-09T01:31:47;27.23;;;14.73;;
5349;SDS011;2697;42.144;24.794;2023-05-09T01:34:14;22.23;;;14.40;;
5349;SDS011;2697;42.144;24.794;2023-05-09T01:36:42;16.20;;;10.13;;
5349;SDS011;2697;42.144;24.794;2023-05-09T01:39:11;30.67;;;16.70;;
5349;SDS011;2697;42.144;24.794;2023-05-09T01:41:37;41.33;;;14.47;;
5349;SDS011;2697;42.144;24.794;2023-05-09T01:44:04;25.93;;;15.20;;
5349;SDS011;2697;42.144;24.794;2023-05-09T01:46:33;28.50;;;15.70;;
5349;SDS011;2697;42.144;24.794;2023-05-09T01:49:01;20.97;;;12.93;;
5349;SDS011;2697;42.144;24.794;2023-05-09T01:51:27;32.37;;;13.93;;
5349;SDS011;2697;42.144;24.794;2023-05-09T01:53:55;36.37;;;16.77;;
5349;SDS011;2697;42.144;24.794;2023-05-09T01:56:22;30.73;;;16.47;;
5349;SDS011;2697;42.144;24.794;2023-05-09T01:58:50;27.60;;;16.37;;
5349;SDS011;2697;42.144;24.794;2023-05-09T02:01:17;31.33;;;14.83;;
5349;SDS011;2697;42.144;24.794;2023-05-09T02:03:44;39.00;;;18.27;;
5349;SDS011;2697;42.144;24.794;2023-05-09T02:06:11;36.53;;;16.80;;
5349;SDS011;2697;42.144;24.794;2023-05-09T02:08:37;24.30;;;15.83;;
5349;SDS011;2697;42.144;24.794;2023-05-09T02:11:03;29.60;;;16.90;;
5349;SDS011;2697;42.144;24.794;2023-05-09T02:13:29;29.57;;;17.53;;
5349;SDS011;2697;42.144;24.794;2023-05-09T02:15:55;25.77;;;14.10;;
5349;SDS011;2697;42.144;24.794;2023-05-09T02:18:21;20.93;;;12.27;;
5349;SDS011;2697;42.144;24.794;2023-05-09T02:20:46;29.53;;;14.10;;
5349;SDS011;2697;42.144;24.794;2023-05-09T02:23:12;21.37;;;12.97;;
5349;SDS011;2697;42.144;24.794;2023-05-09T02:25:38;43.17;;;17.17;;
5349;SDS011;2697;42.144;24.794;2023-05-09T02:28:04;29.40;;;15.37;;
5349;SDS011;2697;42.144;24.794;2023-05-09T02:30:34;33.03;;;17.60;;
5349;SDS011;2697;42.144;24.794;2023-05-09T02:33:03;19.87;;;11.77;;
5349;SDS011;2697;42.144;24.794;2023-05-09T02:35:32;22.50;;;13.93;;
5349;SDS011;2697;42.144;24.794;2023-05-09T02:37:59;31.30;;;16.10;;
5349;SDS011;2697;42.144;24.794;2023-05-09T02:40:25;39.97;;;17.60;;
5349;SDS011;2697;42.144;24.794;2023-05-09T02:42:52;23.80;;;13.07;;
5349;SDS011;2697;42.144;24.794;2023-05-09T02:45:17;31.33;;;18.63;;
5349;SDS011;2697;42.144;24.794;2023-05-09T02:47:42;26.20;;;17.00;;
5349;SDS011;2697;42.144;24.794;2023-05-09T02:50:08;28.43;;;16.40;;
5349;SDS011;2697;42.144;24.794;2023-05-09T02:52:33;26.13;;;14.00;;
5349;SDS011;2697;42.144;24.794;2023-05-09T02:54:59;21.43;;;14.40;;
5349;SDS011;2697;42.144;24.794;2023-05-09T02:57:24;23.40;;;14.27;;
5349;SDS011;2697;42.144;24.794;2023-05-09T02:59:50;28.50;;;16.10;;
5349;SDS011;2697;42.144;24.794;2023-05-09T03:02:15;27.23;;;12.10;;
5349;SDS011;2697;42.144;24.794;2023-05-09T03:04:40;32.97;;;15.57;;
5349;SDS011;2697;42.144;24.794;2023-05-09T03:07:06;31.60;;;16.27;;
5349;SDS011;2697;42.144;24.794;2023-05-09T03:09:31;28.90;;;15.57;;
5349;SDS011;2697;42.144;24.794;2023-05-09T03:11:56;28.17;;;15.07;;
5349;SDS011;2697;42.144;24.794;2023-05-09T03:14:22;24.60;;;12.40;;
5349;SDS011;2697;42.144;24.794;2023-05-09T03:16:47;28.03;;;15.57;;
5349;SDS011;2697;42.144;24.794;2023-05-09T03:19:13;32.10;;;18.60;;
5349;SDS011;2697;42.144;24.794;2023-05-09T03:21:38;32.60;;;18.27;;
5349;SDS011;2697;42.144;24.794;2023-05-09T03:24:04;27.63;;;15.50;;
5349;SDS011;2697;42.144;24.794;2023-05-09T03:26:30;22.50;;;14.37;;
5349;SDS011;2697;42.144;24.794;2023-05-09T03:28:56;34.47;;;20.00;;
5349;SDS011;2697;42.144;24.794;2023-05-09T03:31:21;21.93;;;12.63;;
5349;SDS011;2697;42.144;24.794;2023-05-09T03:33:46;28.90;;;15.23;;
5349;SDS011;2697;42.144;24.794;2023-05-09T03:36:12;25.00;;;15.73;;
5349;SDS011;2697;42.144;24.794;2023-05-09T03:38:38;35.27;;;15.20;;
5349;SDS011;2697;42.144;24.794;2023-05-09T03:41:03;30.20;;;18.13;;
5349;SDS011;2697;42.144;24.794;2023-05-09T03:43:29;27.30;;;16.60;;
5349;SDS011;2697;42.144;24.794;2023-05-09T03:45:54;34.03;;;17.97;;
5349;SDS011;2697;42.144;24.794;2023-05-09T03:48:20;32.20;;;17.43;;
5349;SDS011;2697;42.144;24.794;2023-05-09T03:50:45;25.10;;;14.77;;
5349;SDS011;2697;42.144;24.794;2023-05-09T03:53:10;29.33;;;17.07;;
5349;SDS011;2697;42.144;24.794;2023-05-09T03:55:36;30.23;;;16.30;;
5349;SDS011;2697;42.144;24.794;2023-05-09T03:58:01;38.03;;;18.73;;
5349;SDS011;2697;42.144;24.794;2023-05-09T04:00:27;22.93;;;12.47;;
5349;SDS011;2697;42.144;24.794;2023-05-09T04:02:53;33.13;;;19.13;;
5349;SDS011;2697;42.144;24.794;2023-05-09T04:05:18;34.73;;;20.80;;
5349;SDS011;2697;42.144;24.794;2023-05-09T04:07:44;30.27;;;18.80;;
5349;SDS011;2697;42.144;24.794;2023-05-09T04:10:10;28.77;;;16.10;;
5349;SDS011;2697;42.144;24.794;2023-05-09T04:12:36;32.30;;;18.97;;
5349;SDS011;2697;42.144;24.794;2023-05-09T04:15:01;31.13;;;17.50;;
5349;SDS011;2697;42.144;24.794;2023-05-09T04:17:27;32.90;;;20.20;;
5349;SDS011;2697;42.144;24.794;2023-05-09T04:19:53;37.70;;;19.10;;
5349;SDS011;2697;42.144;24.794;2023-05-09T04:22:18;31.97;;;17.20;;
5349;SDS011;2697;42.144;24.794;2023-05-09T04:24:43;43.67;;;20.93;;
5349;SDS011;2697;42.144;24.794;2023-05-09T04:27:09;25.40;;;14.10;;
5349;SDS011;2697;42.144;24.794;2023-05-09T04:29:35;30.03;;;18.50;;
5349;SDS011;2697;42.144;24.794;2023-05-09T04:32:00;31.03;;;18.33;;
5349;SDS011;2697;42.144;24.794;2023-05-09T04:34:27;30.50;;;18.57;;
5349;SDS011;2697;42.144;24.794;2023-05-09T04:36:53;23.10;;;14.20;;
5349;SDS011;2697;42.144;24.794;2023-05-09T04:39:19;30.30;;;18.27;;
5349;SDS011;2697;42.144;24.794;2023-05-09T04:41:44;30.63;;;16.83;;
5349;SDS011;2697;42.144;24.794;2023-05-09T04:44:12;35.67;;;18.67;;
5349;SDS011;2697;42.144;24.794;2023-05-09T04:46:37;32.90;;;15.60;;
5349;SDS011;2697;42.144;24.794;2023-05-09T04:49:03;22.90;;;10.37;;
5349;SDS011;2697;42.144;24.794;2023-05-09T04:51:28;18.60;;;10.77;;
5349;SDS011;2697;42.144;24.794;2023-05-09T04:53:53;13.77;;;8.83;;
5349;SDS011;2697;42.144;24.794;2023-05-09T04:56:19;22.70;;;12.20;;
5349;SDS011;2697;42.144;24.794;2023-05-09T04:58:45;15.60;;;8.30;;
5349;SDS011;2697;42.144;24.794;2023-05-09T05:01:11;15.37;;;11.20;;
5349;SDS011;2697;42.144;24.794;2023-05-09T05:03:36;17.60;;;9.30;;
5349;SDS011;2697;42.144;24.794;2023-05-09T05:06:01;22.00;;;12.67;;
5349;SDS011;2697;42.144;24.794;2023-05-09T05:08:27;16.73;;;9.80;;
5349;SDS011;2697;42.144;24.794;2023-05-09T05:10:53;28.33;;;11.33;;
5349;SDS011;2697;42.144;24.794;2023-05-09T05:13:18;18.40;;;8.47;;
5349;SDS011;2697;42.144;24.794;2023-05-09T05:15:45;17.60;;;8.67;;
5349;SDS011;2697;42.144;24.794;2023-05-09T05:18:11;13.30;;;9.50;;
5349;SDS011;2697;42.144;24.794;2023-05-09T05:20:36;15.77;;;10.43;;
5349;SDS011;2697;42.144;24.794;2023-05-09T05:23:04;22.00;;;11.10;;
5349;SDS011;2697;42.144;24.794;2023-05-09T05:25:29;24.87;;;13.50;;
5349;SDS011;2697;42.144;24.794;2023-05-09T05:27:55;26.93;;;11.27;;
5349;SDS011;2697;42.144;24.794;2023-05-09T05:30:20;25.23;;;12.10;;
5349;SDS011;2697;42.144;24.794;2023-05-09T05:32:46;14.40;;;10.20;;
5349;SDS011;2697;42.144;24.794;2023-05-09T05:35:11;22.70;;;12.53;;
5349;SDS011;2697;42.144;24.794;2023-05-09T05:37:37;30.63;;;15.90;;
5349;SDS011;2697;42.144;24.794;2023-05-09T05:40:03;20.13;;;12.00;;
5349;SDS011;2697;42.144;24.794;2023-05-09T05:42:30;20.30;;;10.20;;
5349;SDS011;2697;42.144;24.794;2023-05-09T05:44:55;27.10;;;12.57;;
5349;SDS011;2697;42.144;24.794;2023-05-09T05:47:21;29.60;;;14.93;;
5349;SDS011;2697;42.144;24.794;2023-05-09T05:49:46;18.23;;;9.40;;
5349;SDS011;2697;42.144;24.794;2023-05-09T05:52:11;28.63;;;9.80;;
5349;SDS011;2697;42.144;24.794;2023-05-09T05:54:37;20.10;;;13.27;;
5349;SDS011;2697;42.144;24.794;2023-05-09T05:57:02;23.53;;;11.83;;
5349;SDS011;2697;42.144;24.794;2023-05-09T05:59:28;28.77;;;12.10;;
5349;SDS011;2697;42.144;24.794;2023-05-09T06:01:53;26.93;;;14.00;;
5349;SDS011;2697;42.144;24.794;2023-05-09T06:04:18;29.00;;;13.90;;
5349;SDS011;2697;42.144;24.794;2023-05-09T06:06:44;22.47;;;10.13;;
5349;SDS011;2697;42.144;24.794;2023-05-09T06:09:10;17.27;;;10.80;;
5349;SDS011;2697;42.144;24.794;2023-05-09T06:11:36;30.20;;;15.47;;
5349;SDS011;2697;42.144;24.794;2023-05-09T06:14:01;32.00;;;13.97;;
5349;SDS011;2697;42.144;24.794;2023-05-09T06:16:27;13.90;;;7.17;;
5349;SDS011;2697;42.144;24.794;2023-05-09T06:18:52;16.67;;;9.03;;
5349;SDS011;2697;42.144;24.794;2023-05-09T06:21:17;30.90;;;16.57;;
5349;SDS011;2697;42.144;24.794;2023-05-09T06:23:43;29.03;;;15.10;;
5349;SDS011;2697;42.144;24.794;2023-05-09T06:26:08;24.90;;;14.40;;
5349;SDS011;2697;42.144;24.794;2023-05-09T06:28:33;28.37;;;11.47;;
5349;SDS011;2697;42.144;24.794;2023-05-09T06:30:59;29.03;;;16.00;;
5349;SDS011;2697;42.144;24.794;2023-05-09T06:33:25;28.87;;;11.17;;
5349;SDS011;2697;42.144;24.794;2023-05-09T06:35:50;37.97;;;17.20;;
5349;SDS011;2697;42.144;24.794;2023-05-09T06:38:16;30.20;;;13.20;;
5349;SDS011;2697;42.144;24.794;2023-05-09T06:40:41;28.43;;;14.87;;
5349;SDS011;2697;42.144;24.794;2023-05-09T06:43:06;26.67;;;15.07;;
5349;SDS011;2697;42.144;24.794;2023-05-09T06:45:32;37.80;;;16.80;;
5349;SDS011;2697;42.144;24.794;2023-05-09T06:47:58;34.47;;;16.23;;
5349;SDS011;2697;42.144;24.794;2023-05-09T06:50:23;25.20;;;15.47;;
5349;SDS011;2697;42.144;24.794;2023-05-09T06:52:48;20.17;;;11.00;;
5349;SDS011;2697;42.144;24.794;2023-05-09T06:55:14;33.70;;;15.07;;
5349;SDS011;2697;42.144;24.794;2023-05-09T06:57:39;17.30;;;9.30;;
5349;SDS011;2697;42.144;24.794;2023-05-09T07:00:05;34.10;;;11.77;;
5349;SDS011;2697;42.144;24.794;2023-05-09T07:02:31;25.53;;;13.23;;
5349;SDS011;2697;42.144;24.794;2023-05-09T07:04:56;37.73;;;18.40;;
5349;SDS011;2697;42.144;24.794;2023-05-09T07:07:22;29.47;;;15.57;;
5349;SDS011;2697;42.144;24.794;2023-05-09T07:09:47;28.43;;;15.00;;
5349;SDS011;2697;42.144;24.794;2023-05-09T07:12:12;23.50;;;11.53;;
5349;SDS011;2697;42.144;24.794;2023-05-09T07:14:38;44.60;;;18.00;;
5349;SDS011;2697;42.144;24.794;2023-05-09T07:17:05;32.87;;;16.17;;
5349;SDS011;2697;42.144;24.794;2023-05-09T07:19:32;24.20;;;12.63;;
5349;SDS011;2697;42.144;24.794;2023-05-09T07:21:58;15.43;;;10.40;;
5349;SDS011;2697;42.144;24.794;2023-05-09T07:24:23;29.30;;;11.93;;
5349;SDS011;2697;42.144;24.794;2023-05-09T07:26:48;36.53;;;15.00;;
5349;SDS011;2697;42.144;24.794;2023-05-09T07:29:13;35.07;;;18.20;;
5349;SDS011;2697;42.144;24.794;2023-05-09T07:31:39;43.47;;;17.93;;
5349;SDS011;2697;42.144;24.794;2023-05-09T07:34:04;36.93;;;16.30;;
5349;SDS011;2697;42.144;24.794;2023-05-09T07:36:30;31.83;;;17.20;;
5349;SDS011;2697;42.144;24.794;2023-05-09T07:38:55;19.47;;;11.80;;
5349;SDS011;2697;42.144;24.794;2023-05-09T07:41:20;22.93;;;13.73;;
5349;SDS011;2697;42.144;24.794;2023-05-09T07:43:46;26.00;;;15.10;;
5349;SDS011;2697;42.144;24.794;2023-05-09T07:46:11;40.47;;;18.17;;
5349;SDS011;2697;42.144;24.794;2023-05-09T07:48:37;23.60;;;11.27;;
5349;SDS011;2697;42.144;24.794;2023-05-09T07:51:02;35.17;;;17.07;;
5349;SDS011;2697;42.144;24.794;2023-05-09T07:53:28;14.33;;;9.80;;
5349;SDS011;2697;42.144;24.794;2023-05-09T07:55:53;30.17;;;14.27;;
5349;SDS011;2697;42.144;24.794;2023-05-09T07:58:18;32.00;;;17.93;;
5349;SDS011;2697;42.144;24.794;2023-05-09T08:00:44;30.97;;;15.73;;
5349;SDS011;2697;42.144;24.794;2023-05-09T08:03:09;35.77;;;17.30;;
5349;SDS011;2697;42.144;24.794;2023-05-09T08:05:34;23.40;;;13.70;;
5349;SDS011;2697;42.144;24.794;2023-05-09T08:08:00;30.53;;;17.00;;
5349;SDS011;2697;42.144;24.794;2023-05-09T08:10:25;41.77;;;21.40;;
5349;SDS011;2697;42.144;24.794;2023-05-09T08:12:54;24.13;;;10.70;;
5349;SDS011;2697;42.144;24.794;2023-05-09T08:15:20;43.37;;;20.60;;
5349;SDS011;2697;42.144;24.794;2023-05-09T08:17:45;39.17;;;14.50;;
5349;SDS011;2697;42.144;24.794;2023-05-09T08:20:11;24.53;;;14.00;;
5349;SDS011;2697;42.144;24.794;2023-05-09T08:22:37;37.30;;;16.93;;
5349;SDS011;2697;42.144;24.794;2023-05-09T08:25:04;28.83;;;15.40;;
5349;SDS011;2697;42.144;24.794;2023-05-09T08:27:30;25.93;;;13.80;;
5349;SDS011;2697;42.144;24.794;2023-05-09T08:29:55;43.13;;;21.10;;
5349;SDS011;2697;42.144;24.794;2023-05-09T08:32:21;27.27;;;14.13;;
5349;SDS011;2697;42.144;24.794;2023-05-09T08:34:46;29.20;;;13.10;;
5349;SDS011;2697;42.144;24.794;2023-05-09T08:37:11;28.63;;;13.90;;
5349;SDS011;2697;42.144;24.794;2023-05-09T08:39:37;23.80;;;14.23;;
5349;SDS011;2697;42.144;24.794;2023-05-09T08:42:02;28.73;;;12.53;;
5349;SDS011;2697;42.144;24.794;2023-05-09T08:44:28;31.40;;;17.87;;
5349;SDS011;2697;42.144;24.794;2023-05-09T08:46:57;32.90;;;18.70;;
5349;SDS011;2697;42.144;24.794;2023-05-09T08:49:24;32.57;;;15.33;;
5349;SDS011;2697;42.144;24.794;2023-05-09T08:51:50;32.27;;;17.17;;
5349;SDS011;2697;42.144;24.794;2023-05-09T08:54:16;38.33;;;18.50;;
5349;SDS011;2697;42.144;24.794;2023-05-09T08:56:43;32.33;;;17.00;;
5349;SDS011;2697;42.144;24.794;2023-05-09T08:59:08;30.70;;;15.90;;
5349;SDS011;2697;42.144;24.794;2023-05-09T09:01:34;24.77;;;14.13;;
5349;SDS011;2697;42.144;24.794;2023-05-09T09:04:00;18.53;;;10.00;;
5349;SDS011;2697;42.144;24.794;2023-05-09T09:06:29;22.80;;;14.20;;
5349;SDS011;2697;42.144;24.794;2023-05-09T09:08:57;22.50;;;14.30;;
5349;SDS011;2697;42.144;24.794;2023-05-09T09:11:23;28.10;;;17.27;;
5349;SDS011;2697;42.144;24.794;2023-05-09T09:13:49;20.03;;;12.47;;
5349;SDS011;2697;42.144;24.794;2023-05-09T09:16:20;19.13;;;11.87;;
5349;SDS011;2697;42.144;24.794;2023-05-09T09:18:46;21.43;;;11.37;;
5349;SDS011;2697;42.144;24.794;2023-05-09T09:21:14;29.50;;;15.13;;
5349;SDS011;2697;42.144;24.794;2023-05-09T09:23:43;26.50;;;14.70;;
5349;SDS011;2697;42.144;24.794;2023-05-09T09:26:11;25.77;;;12.20;;
5349;SDS011;2697;42.144;24.794;2023-05-09T09:28:37;27.10;;;14.40;;
5349;SDS011;2697;42.144;24.794;2023-05-09T09:31:17;25.73;;;14.40;;
5349;SDS011;2697;42.144;24.794;2023-05-09T09:33:47;23.70;;;12.80;;
5349;SDS011;2697;42.144;24.794;2023-05-09T09:36:13;22.80;;;9.50;;
5349;SDS011;2697;42.144;24.794;2023-05-09T09:38:39;15.33;;;9.40;;
5349;SDS011;2697;42.144;24.794;2023-05-09T09:41:07;23.63;;;13.27;;
5349;SDS011;2697;42.144;24.794;2023-05-09T09:43:35;24.53;;;11.70;;
5349;SDS011;2697;42.144;24.794;2023-05-09T09:46:01;26.27;;;14.90;;
5349;SDS011;2697;42.144;24.794;2023-05-09T09:48:34;31.83;;;17.20;;
5349;SDS011;2697;42.144;24.794;2023-05-09T09:51:09;20.73;;;13.50;;
5349;SDS011;2697;42.144;24.794;2023-05-09T09:53:41;41.23;;;16.70;;
5349;SDS011;2697;42.144;24.794;2023-05-09T09:56:07;32.97;;;15.53;;
5349;SDS011;2697;42.144;24.794;2023-05-09T09:58:33;33.13;;;15.87;;
5349;SDS011;2697;42.144;24.794;2023-05-09T10:01:06;32.90;;;18.17;;
5349;SDS011;2697;42.144;24.794;2023-05-09T10:03:36;25.63;;;12.17;;
5349;SDS011;2697;42.144;24.794;2023-05-09T10:06:09;27.13;;;12.90;;
5349;SDS011;2697;42.144;24.794;2023-05-09T10:08:36;23.70;;;13.03;;
5349;SDS011;2697;42.144;24.794;2023-05-09T10:11:01;25.23;;;12.00;;
5349;SDS011;2697;42.144;24.794;2023-05-09T10:13:27;22.03;;;9.90;;
5349;SDS011;2697;42.144;24.794;2023-05-09T10:15:53;16.63;;;9.00;;
5349;SDS011;2697;42.144;24.794;2023-05-09T10:18:23;20.03;;;11.70;;
5349;SDS011;2697;42.144;24.794;2023-05-09T10:20:52;20.30;;;10.13;;
5349;SDS011;2697;42.144;24.794;2023-05-09T10:23:19;20.70;;;11.83;;
5349;SDS011;2697;42.144;24.794;2023-05-09T10:25:49;15.93;;;9.00;;
5349;SDS011;2697;42.144;24.794;2023-05-09T10:28:26;19.13;;;10.20;;
5349;SDS011;2697;42.144;24.794;2023-05-09T10:31:28;25.00;;;10.17;;
5349;SDS011;2697;42.144;24.794;2023-05-09T10:33:53;24.43;;;11.90;;
5349;SDS011;2697;42.144;24.794;2023-05-09T10:36:22;20.40;;;10.97;;
5349;SDS011;2697;42.144;24.794;2023-05-09T10:38:49;16.20;;;9.73;;
5349;SDS011;2697;42.144;24.794;2023-05-09T10:41:17;17.80;;;7.20;;
5349;SDS011;2697;42.144;24.794;2023-05-09T10:43:46;13.07;;;7.40;;
5349;SDS011;2697;42.144;24.794;2023-05-09T10:46:12;18.30;;;10.63;;
5349;SDS011;2697;42.144;24.794;2023-05-09T10:48:38;20.80;;;10.53;;
5349;SDS011;2697;42.144;24.794;2023-05-09T10:51:05;13.77;;;8.70;;
5349;SDS011;2697;42.144;24.794;2023-05-09T10:53:42;11.57;;;7.40;;
5349;SDS011;2697;42.144;24.794;2023-05-09T10:56:09;16.63;;;9.63;;
5349;SDS011;2697;42.144;24.794;2023-05-09T10:58:46;16.00;;;10.13;;
5349;SDS011;2697;42.144;24.794;2023-05-09T11:01:12;12.23;;;7.63;;
5349;SDS011;2697;42.144;24.794;2023-05-09T11:03:56;17.03;;;10.07;;
5349;SDS011;2697;42.144;24.794;2023-05-09T11:11:57;16.93;;;8.10;;
5349;SDS011;2697;42.144;24.794;2023-05-09T11:14:37;23.63;;;9.30;;
5349;SDS011;2697;42.144;24.794;2023-05-09T11:17:05;25.33;;;12.70;;
5349;SDS011;2697;42.144;24.794;2023-05-09T11:19:33;17.03;;;9.70;;
5349;SDS011;2697;42.144;24.794;2023-05-09T11:22:18;26.50;;;11.80;;
5349;SDS011;2697;42.144;24.794;2023-05-09T11:24:45;19.67;;;9.30;;
5349;SDS011;2697;42.144;24.794;2023-05-09T11:27:15;12.97;;;9.07;;
5349;SDS011;2697;42.144;24.794;2023-05-09T11:29:53;24.83;;;10.80;;
5349;SDS011;2697;42.144;24.794;2023-05-09T11:32:19;34.67;;;11.00;;
5349;SDS011;2697;42.144;24.794;2023-05-09T11:34:45;24.07;;;12.00;;
5349;SDS011;2697;42.144;24.794;2023-05-09T11:37:13;28.50;;;12.20;;
5349;SDS011;2697;42.144;24.794;2023-05-09T11:42:24;18.40;;;10.60;;
5349;SDS011;2697;42.144;24.794;2023-05-09T11:44:53;22.60;;;11.60;;
5349;SDS011;2697;42.144;24.794;2023-05-09T11:47:20;18.40;;;11.97;;
5349;SDS011;2697;42.144;24.794;2023-05-09T11:49:46;17.10;;;9.43;;
5349;SDS011;2697;42.144;24.794;2023-05-09T11:52:13;20.17;;;11.23;;
5349;SDS011;2697;42.144;24.794;2023-05-09T11:54:39;29.90;;;15.30;;
5349;SDS011;2697;42.144;24.794;2023-05-09T11:57:05;27.03;;;14.83;;
5349;SDS011;2697;42.144;24.794;2023-05-09T11:59:33;23.17;;;11.50;;
5349;SDS011;2697;42.144;24.794;2023-05-09T12:02:03;21.53;;;12.10;;
5349;SDS011;2697;42.144;24.794;2023-05-09T12:04:30;17.90;;;10.60;;
5349;SDS011;2697;42.144;24.794;2023-05-09T12:06:59;24.43;;;12.57;;
5349;SDS011;2697;42.144;24.794;2023-05-09T12:09:29;18.90;;;8.97;;
5349;SDS011;2697;42.144;24.794;2023-05-09T12:11:57;21.53;;;11.80;;
5349;SDS011;2697;42.144;24.794;2023-05-09T12:14:29;24.77;;;11.87;;
5349;SDS011;2697;42.144;24.794;2023-05-09T12:16:56;20.20;;;9.30;;
5349;SDS011;2697;42.144;24.794;2023-05-09T12:19:23;27.23;;;11.60;;
5349;SDS011;2697;42.144;24.794;2023-05-09T12:21:56;21.03;;;11.20;;
5349;SDS011;2697;42.144;24.794;2023-05-09T12:24:23;20.73;;;12.60;;
5349;SDS011;2697;42.144;24.794;2023-05-09T12:26:52;25.23;;;12.73;;
5349;SDS011;2697;42.144;24.794;2023-05-09T12:29:19;14.70;;;9.57;;
5349;SDS011;2697;42.144;24.794;2023-05-09T12:31:45;24.23;;;10.83;;
5349;SDS011;2697;42.144;24.794;2023-05-09T12:34:12;21.60;;;10.93;;
5349;SDS011;2697;42.144;24.794;2023-05-09T12:36:37;14.10;;;9.80;;
5349;SDS011;2697;42.144;24.794;2023-05-09T12:39:07;20.60;;;11.17;;
5349;SDS011;2697;42.144;24.794;2023-05-09T12:41:34;20.60;;;10.43;;
5349;SDS011;2697;42.144;24.794;2023-05-09T12:44:06;34.80;;;12.67;;
5349;SDS011;2697;42.144;24.794;2023-05-09T12:46:32;20.40;;;11.97;;
5349;SDS011;2697;42.144;24.794;2023-05-09T12:48:58;20.30;;;11.70;;
5349;SDS011;2697;42.144;24.794;2023-05-09T12:51:23;18.33;;;7.70;;
5349;SDS011;2697;42.144;24.794;2023-05-09T12:53:48;15.53;;;6.00;;
5349;SDS011;2697;42.144;24.794;2023-05-09T12:56:15;13.53;;;8.70;;
5349;SDS011;2697;42.144;24.794;2023-05-09T12:58:48;13.23;;;8.60;;
5349;SDS011;2697;42.144;24.794;2023-05-09T13:01:15;16.37;;;8.43;;
5349;SDS011;2697;42.144;24.794;2023-05-09T13:03:41;18.43;;;10.40;;
5349;SDS011;2697;42.144;24.794;2023-05-09T13:06:12;14.50;;;9.33;;
5349;SDS011;2697;42.144;24.794;2023-05-09T13:08:38;13.20;;;8.03;;
5349;SDS011;2697;42.144;24.794;2023-05-09T13:11:04;14.80;;;9.40;;
5349;SDS011;2697;42.144;24.794;2023-05-09T13:13:30;18.30;;;10.10;;
5349;SDS011;2697;42.144;24.794;2023-05-09T13:15:55;10.77;;;6.80;;
5349;SDS011;2697;42.144;24.794;2023-05-09T13:18:21;14.57;;;8.50;;
5349;SDS011;2697;42.144;24.794;2023-05-09T13:20:48;16.33;;;9.80;;
5349;SDS011;2697;42.144;24.794;2023-05-09T13:23:14;20.30;;;9.90;;
5349;SDS011;2697;42.144;24.794;2023-05-09T13:25:40;13.10;;;9.77;;
5349;SDS011;2697;42.144;24.794;2023-05-09T13:28:05;12.10;;;6.27;;
5349;SDS011;2697;42.144;24.794;2023-05-09T13:30:31;21.67;;;10.13;;
5349;SDS011;2697;42.144;24.794;2023-05-09T13:32:56;17.20;;;9.20;;
5349;SDS011;2697;42.144;24.794;2023-05-09T13:35:22;13.07;;;6.97;;
5349;SDS011;2697;42.144;24.794;2023-05-09T13:37:48;12.73;;;7.13;;
5349;SDS011;2697;42.144;24.794;2023-05-09T13:40:13;14.60;;;9.83;;
5349;SDS011;2697;42.144;24.794;2023-05-09T13:42:38;18.20;;;9.17;;
5349;SDS011;2697;42.144;24.794;2023-05-09T13:45:05;17.13;;;10.10;;
5349;SDS011;2697;42.144;24.794;2023-05-09T13:47:30;16.20;;;7.30;;
5349;SDS011;2697;42.144;24.794;2023-05-09T13:49:56;16.60;;;6.07;;
5349;SDS011;2697;42.144;24.794;2023-05-09T13:52:21;17.87;;;8.53;;
5349;SDS011;2697;42.144;24.794;2023-05-09T13:54:48;17.33;;;7.00;;
5349;SDS011;2697;42.144;24.794;2023-05-09T13:57:13;16.07;;;7.13;;
5349;SDS011;2697;42.144;24.794;2023-05-09T13:59:39;12.83;;;6.33;;
5349;SDS011;2697;42.144;24.794;2023-05-09T14:02:06;14.30;;;6.90;;
5349;SDS011;2697;42.144;24.794;2023-05-09T14:04:32;8.40;;;6.37;;
5349;SDS011;2697;42.144;24.794;2023-05-09T14:06:58;11.20;;;6.97;;
5349;SDS011;2697;42.144;24.794;2023-05-09T14:09:25;7.70;;;5.77;;
5349;SDS011;2697;42.144;24.794;2023-05-09T14:11:51;13.90;;;6.63;;
5349;SDS011;2697;42.144;24.794;2023-05-09T14:14:20;13.63;;;6.40;;
5349;SDS011;2697;42.144;24.794;2023-05-09T14:16:47;13.23;;;5.67;;
5349;SDS011;2697;42.144;24.794;2023-05-09T14:19:13;9.43;;;5.97;;
5349;SDS011;2697;42.144;24.794;2023-05-09T14:21:42;6.17;;;4.10;;
5349;SDS011;2697;42.144;24.794;2023-05-09T14:24:09;13.43;;;7.63;;
5349;SDS011;2697;42.144;24.794;2023-05-09T14:26:36;10.23;;;5.50;;
5349;SDS011;2697;42.144;24.794;2023-05-09T14:29:02;9.80;;;6.73;;
5349;SDS011;2697;42.144;24.794;2023-05-09T14:31:28;11.43;;;5.10;;
5349;SDS011;2697;42.144;24.794;2023-05-09T14:33:54;17.40;;;6.10;;
5349;SDS011;2697;42.144;24.794;2023-05-09T14:36:19;10.50;;;6.60;;
5349;SDS011;2697;42.144;24.794;2023-05-09T14:38:45;10.20;;;6.73;;
5349;SDS011;2697;42.144;24.794;2023-05-09T14:41:12;14.03;;;5.87;;
5349;SDS011;2697;42.144;24.794;2023-05-09T14:43:37;8.90;;;6.03;;
5349;SDS011;2697;42.144;24.794;2023-05-09T14:46:03;7.60;;;4.30;;
5349;SDS011;2697;42.144;24.794;2023-05-09T14:48:28;7.67;;;5.40;;
5349;SDS011;2697;42.144;24.794;2023-05-09T14:50:54;13.93;;;6.20;;
5349;SDS011;2697;42.144;24.794;2023-05-09T14:53:21;10.87;;;5.50;;
5349;SDS011;2697;42.144;24.794;2023-05-09T14:55:47;8.13;;;5.57;;
5349;SDS011;2697;42.144;24.794;2023-05-09T14:58:13;11.97;;;5.53;;